sensor_id;sensor_type;location;lat;lon;timestamp;temperature;humidity
10276;DHT22;5183;51.190;6.820;2022-08-04T00:00:05;24.70;2.00
10276;DHT22;5183;51.190;6.820;2022-08-04T00:02:42;24.70;15.50
10276;DHT22;5183;51.190;6.820;2022-08-04T00:05:18;24.70;25.10
10276;DHT22;5183;51.190;6.820;2022-08-04T00:08:00;24.70;29.40
10276;DHT22;5183;51.190;6.820;2022-08-04T00:10:30;24.60;38.90
10276;DHT22;5183;51.190;6.820;2022-08-04T00:12:59;24.60;62.70
10276;DHT22;5183;51.190;6.820;2022-08-04T00:15:28;24.50;74.70
10276;DHT22;5183;51.190;6.820;2022-08-04T00:17:59;24.50;99.90
10276;DHT22;5183;51.190;6.820;2022-08-04T00:20:31;24.50;99.90
10276;DHT22;5183;51.190;6.820;2022-08-04T00:23:00;24.60;99.90
10276;DHT22;5183;51.190;6.820;2022-08-04T00:25:28;24.50;99.90
10276;DHT22;5183;51.190;6.820;2022-08-04T00:27:55;24.50;99.90
10276;DHT22;5183;51.190;6.820;2022-08-04T00:30:23;24.50;99.90
10276;DHT22;5183;51.190;6.820;2022-08-04T00:32:51;24.50;99.90
10276;DHT22;5183;51.190;6.820;2022-08-04T00:35:18;24.50;99.90
10276;DHT22;5183;51.190;6.820;2022-08-04T00:37:46;24.50;99.90
10276;DHT22;5183;51.190;6.820;2022-08-04T00:40:22;24.50;99.90
10276;DHT22;5183;51.190;6.820;2022-08-04T00:42:58;24.40;99.90
10276;DHT22;5183;51.190;6.820;2022-08-04T00:48:36;24.30;99.90
10276;DHT22;5183;51.190;6.820;2022-08-04T00:51:13;24.40;99.90
10276;DHT22;5183;51.190;6.820;2022-08-04T00:53:54;24.40;99.90
10276;DHT22;5183;51.190;6.820;2022-08-04T00:56:37;24.30;99.90
10276;DHT22;5183;51.190;6.820;2022-08-04T00:59:13;24.30;99.90
10276;DHT22;5183;51.190;6.820;2022-08-04T01:01:57;24.20;99.90
10276;DHT22;5183;51.190;6.820;2022-08-04T01:04:36;24.20;99.90
10276;DHT22;5183;51.190;6.820;2022-08-04T01:07:26;24.20;99.90
10276;DHT22;5183;51.190;6.820;2022-08-04T01:10:03;24.10;99.90
10276;DHT22;5183;51.190;6.820;2022-08-04T01:12:57;24.10;99.90
10276;DHT22;5183;51.190;6.820;2022-08-04T01:15:35;24.00;99.90
10276;DHT22;5183;51.190;6.820;2022-08-04T01:18:05;24.00;99.90
10276;DHT22;5183;51.190;6.820;2022-08-04T01:20:33;24.00;99.90
10276;DHT22;5183;51.190;6.820;2022-08-04T01:23:39;24.00;99.90
10276;DHT22;5183;51.190;6.820;2022-08-04T01:26:49;24.00;99.90
10276;DHT22;5183;51.190;6.820;2022-08-04T01:29:21;23.90;99.90
10276;DHT22;5183;51.190;6.820;2022-08-04T01:32:00;23.80;99.90
10276;DHT22;5183;51.190;6.820;2022-08-04T01:34:29;23.80;1.00
10276;DHT22;5183;51.190;6.820;2022-08-04T01:36:59;23.70;1.00
10276;DHT22;5183;51.190;6.820;2022-08-04T01:39:34;23.70;1.00
10276;DHT22;5183;51.190;6.820;2022-08-04T01:42:08;23.70;1.00
10276;DHT22;5183;51.190;6.820;2022-08-04T01:44:39;23.70;1.00
10276;DHT22;5183;51.190;6.820;2022-08-04T01:47:07;23.60;1.00
10276;DHT22;5183;51.190;6.820;2022-08-04T01:49:34;23.60;1.00
10276;DHT22;5183;51.190;6.820;2022-08-04T01:52:04;23.50;1.00
10276;DHT22;5183;51.190;6.820;2022-08-04T01:54:37;23.50;1.00
10276;DHT22;5183;51.190;6.820;2022-08-04T01:57:05;23.50;1.00
10276;DHT22;5183;51.190;6.820;2022-08-04T01:59:33;23.50;1.00
10276;DHT22;5183;51.190;6.820;2022-08-04T02:02:04;23.50;1.00
10276;DHT22;5183;51.190;6.820;2022-08-04T02:04:31;23.50;1.00
10276;DHT22;5183;51.190;6.820;2022-08-04T02:07:07;23.50;1.00
10276;DHT22;5183;51.190;6.820;2022-08-04T02:09:42;23.50;1.00
10276;DHT22;5183;51.190;6.820;2022-08-04T02:12:18;23.50;1.00
10276;DHT22;5183;51.190;6.820;2022-08-04T02:14:55;23.40;1.00
10276;DHT22;5183;51.190;6.820;2022-08-04T02:17:29;23.40;23.30
10276;DHT22;5183;51.190;6.820;2022-08-04T02:20:06;23.30;59.20
10276;DHT22;5183;51.190;6.820;2022-08-04T02:22:39;23.30;99.90
10276;DHT22;5183;51.190;6.820;2022-08-04T02:25:08;23.20;99.90
10276;DHT22;5183;51.190;6.820;2022-08-04T02:27:54;23.20;99.90
10276;DHT22;5183;51.190;6.820;2022-08-04T02:30:28;23.10;99.90
10276;DHT22;5183;51.190;6.820;2022-08-04T02:33:02;23.10;99.90
10276;DHT22;5183;51.190;6.820;2022-08-04T02:35:34;23.00;99.90
10276;DHT22;5183;51.190;6.820;2022-08-04T02:38:11;23.00;99.90
10276;DHT22;5183;51.190;6.820;2022-08-04T02:40:42;23.00;99.90
10276;DHT22;5183;51.190;6.820;2022-08-04T02:43:09;23.00;99.90
10276;DHT22;5183;51.190;6.820;2022-08-04T02:45:36;22.90;99.90
10276;DHT22;5183;51.190;6.820;2022-08-04T02:48:07;22.90;99.90
10276;DHT22;5183;51.190;6.820;2022-08-04T02:50:36;22.90;99.90
10276;DHT22;5183;51.190;6.820;2022-08-04T02:53:03;22.90;99.90
10276;DHT22;5183;51.190;6.820;2022-08-04T02:55:33;22.80;99.90
10276;DHT22;5183;51.190;6.820;2022-08-04T02:58:02;22.80;99.90
10276;DHT22;5183;51.190;6.820;2022-08-04T03:00:30;22.80;99.90
10276;DHT22;5183;51.190;6.820;2022-08-04T03:03:06;22.80;99.90
10276;DHT22;5183;51.190;6.820;2022-08-04T03:05:49;22.80;99.90
10276;DHT22;5183;51.190;6.820;2022-08-04T03:08:59;22.80;99.90
10276;DHT22;5183;51.190;6.820;2022-08-04T03:15:11;22.80;99.90
10276;DHT22;5183;51.190;6.820;2022-08-04T03:18:24;22.80;99.90
10276;DHT22;5183;51.190;6.820;2022-08-04T03:21:15;22.70;99.90
10276;DHT22;5183;51.190;6.820;2022-08-04T03:24:08;22.70;99.90
10276;DHT22;5183;51.190;6.820;2022-08-04T03:26:55;22.70;1.00
10276;DHT22;5183;51.190;6.820;2022-08-04T03:29:59;22.70;1.00
10276;DHT22;5183;51.190;6.820;2022-08-04T03:33:13;22.70;1.00
10276;DHT22;5183;51.190;6.820;2022-08-04T03:39:23;22.60;1.00
10276;DHT22;5183;51.190;6.820;2022-08-04T03:47:59;22.50;1.00
10276;DHT22;5183;51.190;6.820;2022-08-04T03:51:03;22.40;1.00
10276;DHT22;5183;51.190;6.820;2022-08-04T03:57:32;22.30;1.00
10276;DHT22;5183;51.190;6.820;2022-08-04T04:00:06;22.20;1.00
10276;DHT22;5183;51.190;6.820;2022-08-04T04:02:51;22.20;40.30
10276;DHT22;5183;51.190;6.820;2022-08-04T04:05:38;22.20;11.90
10276;DHT22;5183;51.190;6.820;2022-08-04T04:08:40;22.20;17.10
10276;DHT22;5183;51.190;6.820;2022-08-04T04:14:47;22.10;55.40
10276;DHT22;5183;51.190;6.820;2022-08-04T04:21:00;22.10;99.90
10276;DHT22;5183;51.190;6.820;2022-08-04T04:24:05;22.10;99.90
10276;DHT22;5183;51.190;6.820;2022-08-04T04:26:51;22.10;99.90
10276;DHT22;5183;51.190;6.820;2022-08-04T04:29:36;22.10;99.90
10276;DHT22;5183;51.190;6.820;2022-08-04T04:32:16;22.20;99.90
10276;DHT22;5183;51.190;6.820;2022-08-04T04:34:56;22.20;99.90
10276;DHT22;5183;51.190;6.820;2022-08-04T04:37:52;22.20;99.90
10276;DHT22;5183;51.190;6.820;2022-08-04T04:40:33;22.20;99.90
10276;DHT22;5183;51.190;6.820;2022-08-04T04:46:19;22.20;99.90
10276;DHT22;5183;51.190;6.820;2022-08-04T04:48:51;22.20;99.90
10276;DHT22;5183;51.190;6.820;2022-08-04T04:51:36;22.20;99.90
10276;DHT22;5183;51.190;6.820;2022-08-04T04:54:10;22.20;99.90
10276;DHT22;5183;51.190;6.820;2022-08-04T04:56:42;22.20;99.90
10276;DHT22;5183;51.190;6.820;2022-08-04T04:59:14;22.20;99.90
10276;DHT22;5183;51.190;6.820;2022-08-04T05:02:15;22.20;99.90
10276;DHT22;5183;51.190;6.820;2022-08-04T05:05:10;22.20;69.90
10276;DHT22;5183;51.190;6.820;2022-08-04T05:08:29;22.20;1.00
10276;DHT22;5183;51.190;6.820;2022-08-04T05:11:24;22.30;24.70
10276;DHT22;5183;51.190;6.820;2022-08-04T05:13:58;22.30;27.10
10276;DHT22;5183;51.190;6.820;2022-08-04T05:16:31;22.30;1.00
10276;DHT22;5183;51.190;6.820;2022-08-04T05:19:11;22.40;1.00
10276;DHT22;5183;51.190;6.820;2022-08-04T05:21:46;22.40;1.00
10276;DHT22;5183;51.190;6.820;2022-08-04T05:24:17;22.50;1.00
10276;DHT22;5183;51.190;6.820;2022-08-04T05:26:47;22.50;1.00
10276;DHT22;5183;51.190;6.820;2022-08-04T05:29:21;22.60;1.00
10276;DHT22;5183;51.190;6.820;2022-08-04T05:31:50;22.60;1.00
10276;DHT22;5183;51.190;6.820;2022-08-04T05:34:23;22.60;1.00
10276;DHT22;5183;51.190;6.820;2022-08-04T05:36:52;22.70;1.00
10276;DHT22;5183;51.190;6.820;2022-08-04T05:39:23;22.70;1.00
10276;DHT22;5183;51.190;6.820;2022-08-04T05:41:51;22.70;1.00
10276;DHT22;5183;51.190;6.820;2022-08-04T05:44:20;22.80;1.00
10276;DHT22;5183;51.190;6.820;2022-08-04T05:46:49;22.80;1.00
10276;DHT22;5183;51.190;6.820;2022-08-04T05:49:18;22.90;1.00
10276;DHT22;5183;51.190;6.820;2022-08-04T05:51:48;23.00;99.90
10276;DHT22;5183;51.190;6.820;2022-08-04T05:54:16;23.00;1.00
10276;DHT22;5183;51.190;6.820;2022-08-04T05:56:43;23.10;99.90
10276;DHT22;5183;51.190;6.820;2022-08-04T05:59:11;23.10;99.90
10276;DHT22;5183;51.190;6.820;2022-08-04T06:01:40;23.10;99.90
10276;DHT22;5183;51.190;6.820;2022-08-04T06:04:08;23.20;99.90
10276;DHT22;5183;51.190;6.820;2022-08-04T06:06:36;23.20;99.90
10276;DHT22;5183;51.190;6.820;2022-08-04T06:09:06;23.20;99.90
10276;DHT22;5183;51.190;6.820;2022-08-04T06:11:34;23.30;99.90
10276;DHT22;5183;51.190;6.820;2022-08-04T06:14:04;23.40;99.90
10276;DHT22;5183;51.190;6.820;2022-08-04T06:16:36;23.40;99.90
10276;DHT22;5183;51.190;6.820;2022-08-04T06:19:06;23.50;99.90
10276;DHT22;5183;51.190;6.820;2022-08-04T06:21:34;23.50;99.90
10276;DHT22;5183;51.190;6.820;2022-08-04T06:24:04;23.60;99.90
10276;DHT22;5183;51.190;6.820;2022-08-04T06:26:35;23.60;1.00
10276;DHT22;5183;51.190;6.820;2022-08-04T06:29:06;23.70;1.00
10276;DHT22;5183;51.190;6.820;2022-08-04T06:31:42;23.70;1.00
10276;DHT22;5183;51.190;6.820;2022-08-04T06:34:13;23.80;1.00
10276;DHT22;5183;51.190;6.820;2022-08-04T06:36:42;23.90;1.00
10276;DHT22;5183;51.190;6.820;2022-08-04T06:39:10;24.00;1.00
10276;DHT22;5183;51.190;6.820;2022-08-04T06:41:39;24.10;1.00
10276;DHT22;5183;51.190;6.820;2022-08-04T06:44:08;24.10;1.00
10276;DHT22;5183;51.190;6.820;2022-08-04T06:46:37;24.10;1.00
10276;DHT22;5183;51.190;6.820;2022-08-04T06:49:06;24.10;1.00
10276;DHT22;5183;51.190;6.820;2022-08-04T06:51:35;24.20;99.90
10276;DHT22;5183;51.190;6.820;2022-08-04T06:54:03;24.30;99.90
10276;DHT22;5183;51.190;6.820;2022-08-04T06:56:30;24.30;99.90
10276;DHT22;5183;51.190;6.820;2022-08-04T06:59:01;24.40;99.90
10276;DHT22;5183;51.190;6.820;2022-08-04T07:01:29;24.50;99.90
10276;DHT22;5183;51.190;6.820;2022-08-04T07:03:58;24.60;99.90
10276;DHT22;5183;51.190;6.820;2022-08-04T07:06:25;24.60;99.90
10276;DHT22;5183;51.190;6.820;2022-08-04T07:08:52;24.60;99.90
10276;DHT22;5183;51.190;6.820;2022-08-04T07:11:21;24.80;95.10
10276;DHT22;5183;51.190;6.820;2022-08-04T07:13:49;24.90;24.80
10276;DHT22;5183;51.190;6.820;2022-08-04T07:16:19;24.90;1.00
10276;DHT22;5183;51.190;6.820;2022-08-04T07:18:47;25.10;1.00
10276;DHT22;5183;51.190;6.820;2022-08-04T07:21:21;25.20;1.00
10276;DHT22;5183;51.190;6.820;2022-08-04T07:23:48;25.30;1.00
10276;DHT22;5183;51.190;6.820;2022-08-04T07:26:16;25.40;1.00
10276;DHT22;5183;51.190;6.820;2022-08-04T07:28:44;25.40;1.00
10276;DHT22;5183;51.190;6.820;2022-08-04T07:31:14;25.50;1.00
10276;DHT22;5183;51.190;6.820;2022-08-04T07:33:44;25.60;1.00
10276;DHT22;5183;51.190;6.820;2022-08-04T07:36:13;25.70;1.00
10276;DHT22;5183;51.190;6.820;2022-08-04T07:38:41;25.80;1.00
10276;DHT22;5183;51.190;6.820;2022-08-04T07:41:08;26.00;1.00
10276;DHT22;5183;51.190;6.820;2022-08-04T07:43:36;26.00;1.00
10276;DHT22;5183;51.190;6.820;2022-08-04T07:46:03;26.10;1.00
10276;DHT22;5183;51.190;6.820;2022-08-04T07:48:30;26.20;99.90
10276;DHT22;5183;51.190;6.820;2022-08-04T07:50:59;26.30;99.90
10276;DHT22;5183;51.190;6.820;2022-08-04T07:53:26;26.30;99.90
10276;DHT22;5183;51.190;6.820;2022-08-04T07:55:54;26.40;99.90
10276;DHT22;5183;51.190;6.820;2022-08-04T07:58:21;26.40;99.90
10276;DHT22;5183;51.190;6.820;2022-08-04T08:00:48;26.40;99.90
10276;DHT22;5183;51.190;6.820;2022-08-04T08:03:16;26.50;99.90
10276;DHT22;5183;51.190;6.820;2022-08-04T08:05:44;26.50;99.90
10276;DHT22;5183;51.190;6.820;2022-08-04T08:08:12;26.70;99.90
10276;DHT22;5183;51.190;6.820;2022-08-04T08:10:45;26.70;51.90
10276;DHT22;5183;51.190;6.820;2022-08-04T08:13:13;26.70;35.00
10276;DHT22;5183;51.190;6.820;2022-08-04T08:15:43;26.70;70.60
10276;DHT22;5183;51.190;6.820;2022-08-04T08:20:56;26.90;1.00
10276;DHT22;5183;51.190;6.820;2022-08-04T08:23:25;27.00;1.00
10276;DHT22;5183;51.190;6.820;2022-08-04T08:25:54;27.10;1.00
10276;DHT22;5183;51.190;6.820;2022-08-04T08:28:22;27.20;1.00
10276;DHT22;5183;51.190;6.820;2022-08-04T08:30:49;27.40;1.00
10276;DHT22;5183;51.190;6.820;2022-08-04T08:33:17;27.70;1.00
10276;DHT22;5183;51.190;6.820;2022-08-04T08:35:49;27.80;1.00
10276;DHT22;5183;51.190;6.820;2022-08-04T08:38:19;28.00;1.00
10276;DHT22;5183;51.190;6.820;2022-08-04T08:40:52;28.30;1.00
10276;DHT22;5183;51.190;6.820;2022-08-04T08:43:39;28.40;99.90
10276;DHT22;5183;51.190;6.820;2022-08-04T08:46:35;28.60;99.90
10276;DHT22;5183;51.190;6.820;2022-08-04T08:49:24;28.90;99.90
10276;DHT22;5183;51.190;6.820;2022-08-04T08:52:07;29.00;99.90
10276;DHT22;5183;51.190;6.820;2022-08-04T08:55:00;29.10;58.60
10276;DHT22;5183;51.190;6.820;2022-08-04T08:57:51;29.40;1.00
10276;DHT22;5183;51.190;6.820;2022-08-04T09:00:24;29.60;1.00
10276;DHT22;5183;51.190;6.820;2022-08-04T09:09:33;30.20;1.00
10276;DHT22;5183;51.190;6.820;2022-08-04T09:12:08;30.50;1.00
10276;DHT22;5183;51.190;6.820;2022-08-04T09:14:44;30.80;99.90
10276;DHT22;5183;51.190;6.820;2022-08-04T09:17:20;31.10;99.90
10276;DHT22;5183;51.190;6.820;2022-08-04T09:19:51;31.30;99.90
10276;DHT22;5183;51.190;6.820;2022-08-04T09:22:27;31.50;99.90
10276;DHT22;5183;51.190;6.820;2022-08-04T09:25:01;31.70;95.60
10276;DHT22;5183;51.190;6.820;2022-08-04T09:27:34;31.80;69.60
10276;DHT22;5183;51.190;6.820;2022-08-04T09:30:07;31.80;80.00
10276;DHT22;5183;51.190;6.820;2022-08-04T09:32:43;31.80;99.90
10276;DHT22;5183;51.190;6.820;2022-08-04T09:35:18;31.70;91.70
10276;DHT22;5183;51.190;6.820;2022-08-04T09:37:57;31.70;99.90
10276;DHT22;5183;51.190;6.820;2022-08-04T09:40:28;31.60;50.80
10276;DHT22;5183;51.190;6.820;2022-08-04T09:43:04;31.50;87.60
10276;DHT22;5183;51.190;6.820;2022-08-04T09:45:41;31.50;1.00
10276;DHT22;5183;51.190;6.820;2022-08-04T09:48:16;31.30;1.00
10276;DHT22;5183;51.190;6.820;2022-08-04T09:50:44;31.30;1.00
10276;DHT22;5183;51.190;6.820;2022-08-04T09:53:30;31.40;1.00
10276;DHT22;5183;51.190;6.820;2022-08-04T09:56:07;31.50;1.00
10276;DHT22;5183;51.190;6.820;2022-08-04T09:58:45;31.70;1.00
10276;DHT22;5183;51.190;6.820;2022-08-04T10:01:22;31.80;1.00
10276;DHT22;5183;51.190;6.820;2022-08-04T10:03:52;32.20;1.00
10276;DHT22;5183;51.190;6.820;2022-08-04T10:06:46;32.50;1.00
10276;DHT22;5183;51.190;6.820;2022-08-04T10:09:30;32.70;1.00
10276;DHT22;5183;51.190;6.820;2022-08-04T10:12:11;33.00;1.00
10276;DHT22;5183;51.190;6.820;2022-08-04T10:14:50;33.20;1.00
10276;DHT22;5183;51.190;6.820;2022-08-04T10:17:33;33.40;1.00
10276;DHT22;5183;51.190;6.820;2022-08-04T10:20:08;33.60;1.00
10276;DHT22;5183;51.190;6.820;2022-08-04T10:22:40;33.70;1.00
10276;DHT22;5183;51.190;6.820;2022-08-04T10:25:16;33.90;1.00
10276;DHT22;5183;51.190;6.820;2022-08-04T10:27:51;34.20;1.00
10276;DHT22;5183;51.190;6.820;2022-08-04T10:30:20;34.30;99.90
10276;DHT22;5183;51.190;6.820;2022-08-04T10:32:54;34.10;99.90
10276;DHT22;5183;51.190;6.820;2022-08-04T10:35:24;34.00;99.90
10276;DHT22;5183;51.190;6.820;2022-08-04T10:38:00;33.80;99.90
10276;DHT22;5183;51.190;6.820;2022-08-04T10:40:31;33.60;99.90
10276;DHT22;5183;51.190;6.820;2022-08-04T10:43:08;33.80;99.90
10276;DHT22;5183;51.190;6.820;2022-08-04T10:45:39;33.90;99.90
10276;DHT22;5183;51.190;6.820;2022-08-04T10:48:18;33.80;99.90
10276;DHT22;5183;51.190;6.820;2022-08-04T10:50:53;33.90;99.90
10276;DHT22;5183;51.190;6.820;2022-08-04T10:53:24;34.00;99.90
10276;DHT22;5183;51.190;6.820;2022-08-04T10:56:01;34.20;99.90
10276;DHT22;5183;51.190;6.820;2022-08-04T10:58:33;34.40;99.90
10276;DHT22;5183;51.190;6.820;2022-08-04T11:01:07;34.50;99.90
10276;DHT22;5183;51.190;6.820;2022-08-04T11:03:43;34.20;99.90
10276;DHT22;5183;51.190;6.820;2022-08-04T11:06:14;34.20;99.90
10276;DHT22;5183;51.190;6.820;2022-08-04T11:08:45;34.40;99.90
10276;DHT22;5183;51.190;6.820;2022-08-04T11:11:17;34.20;99.90
10276;DHT22;5183;51.190;6.820;2022-08-04T11:13:50;34.30;99.90
10276;DHT22;5183;51.190;6.820;2022-08-04T11:16:23;34.40;99.90
10276;DHT22;5183;51.190;6.820;2022-08-04T11:19:05;34.60;99.90
10276;DHT22;5183;51.190;6.820;2022-08-04T11:21:41;34.60;99.90
10276;DHT22;5183;51.190;6.820;2022-08-04T11:24:13;34.40;99.90
10276;DHT22;5183;51.190;6.820;2022-08-04T11:26:47;34.10;99.90
10276;DHT22;5183;51.190;6.820;2022-08-04T11:29:19;34.10;99.90
10276;DHT22;5183;51.190;6.820;2022-08-04T11:31:49;34.10;99.90
10276;DHT22;5183;51.190;6.820;2022-08-04T11:34:20;34.00;99.90
10276;DHT22;5183;51.190;6.820;2022-08-04T11:36:52;33.90;99.90
10276;DHT22;5183;51.190;6.820;2022-08-04T11:39:25;34.00;99.90
10276;DHT22;5183;51.190;6.820;2022-08-04T11:41:57;33.90;99.90
10276;DHT22;5183;51.190;6.820;2022-08-04T11:44:29;34.00;99.90
10276;DHT22;5183;51.190;6.820;2022-08-04T11:47:01;33.70;99.90
10276;DHT22;5183;51.190;6.820;2022-08-04T11:49:34;33.40;99.90
10276;DHT22;5183;51.190;6.820;2022-08-04T11:52:07;33.20;99.90
10276;DHT22;5183;51.190;6.820;2022-08-04T11:54:36;32.80;99.90
10276;DHT22;5183;51.190;6.820;2022-08-04T11:57:04;32.70;99.90
10276;DHT22;5183;51.190;6.820;2022-08-04T11:59:34;32.40;1.00
10276;DHT22;5183;51.190;6.820;2022-08-04T12:02:22;32.00;1.00
10276;DHT22;5183;51.190;6.820;2022-08-04T12:04:56;32.00;1.00
10276;DHT22;5183;51.190;6.820;2022-08-04T12:07:37;32.00;1.00
10276;DHT22;5183;51.190;6.820;2022-08-04T12:10:17;32.40;1.00
10276;DHT22;5183;51.190;6.820;2022-08-04T12:12:53;32.60;1.00
10276;DHT22;5183;51.190;6.820;2022-08-04T12:15:27;32.90;1.00
10276;DHT22;5183;51.190;6.820;2022-08-04T12:18:03;33.00;1.00
10276;DHT22;5183;51.190;6.820;2022-08-04T12:20:41;33.40;1.00
10276;DHT22;5183;51.190;6.820;2022-08-04T12:23:16;33.70;1.00
10276;DHT22;5183;51.190;6.820;2022-08-04T12:25:47;34.10;1.00
10276;DHT22;5183;51.190;6.820;2022-08-04T12:28:21;33.80;1.00
10276;DHT22;5183;51.190;6.820;2022-08-04T12:30:54;33.60;1.00
10276;DHT22;5183;51.190;6.820;2022-08-04T12:33:28;33.60;1.00
10276;DHT22;5183;51.190;6.820;2022-08-04T12:36:07;33.70;1.00
10276;DHT22;5183;51.190;6.820;2022-08-04T12:38:43;33.80;99.90
10276;DHT22;5183;51.190;6.820;2022-08-04T12:41:15;33.80;99.90
10276;DHT22;5183;51.190;6.820;2022-08-04T12:43:44;33.90;99.90
10276;DHT22;5183;51.190;6.820;2022-08-04T12:46:18;34.20;99.90
10276;DHT22;5183;51.190;6.820;2022-08-04T12:48:47;34.20;99.90
10276;DHT22;5183;51.190;6.820;2022-08-04T12:51:17;34.00;1.00
10276;DHT22;5183;51.190;6.820;2022-08-04T12:53:46;34.10;1.00
10276;DHT22;5183;51.190;6.820;2022-08-04T12:56:15;33.80;1.00
10276;DHT22;5183;51.190;6.820;2022-08-04T12:58:46;33.50;1.00
10276;DHT22;5183;51.190;6.820;2022-08-04T13:01:19;33.30;1.00
10276;DHT22;5183;51.190;6.820;2022-08-04T13:03:51;33.20;1.00
10276;DHT22;5183;51.190;6.820;2022-08-04T13:06:25;33.20;1.00
10276;DHT22;5183;51.190;6.820;2022-08-04T13:08:54;33.40;1.00
10276;DHT22;5183;51.190;6.820;2022-08-04T13:11:21;33.50;1.00
10276;DHT22;5183;51.190;6.820;2022-08-04T13:13:53;33.50;1.00
10276;DHT22;5183;51.190;6.820;2022-08-04T13:16:28;33.60;1.00
10276;DHT22;5183;51.190;6.820;2022-08-04T13:18:56;33.80;1.00
10276;DHT22;5183;51.190;6.820;2022-08-04T13:21:27;33.90;1.00
10276;DHT22;5183;51.190;6.820;2022-08-04T13:23:56;34.00;1.00
10276;DHT22;5183;51.190;6.820;2022-08-04T13:26:26;34.10;1.00
10276;DHT22;5183;51.190;6.820;2022-08-04T13:28:54;34.00;1.00
10276;DHT22;5183;51.190;6.820;2022-08-04T13:31:26;33.90;1.00
10276;DHT22;5183;51.190;6.820;2022-08-04T13:34:00;33.70;1.00
10276;DHT22;5183;51.190;6.820;2022-08-04T13:36:31;33.60;1.00
10276;DHT22;5183;51.190;6.820;2022-08-04T13:41:45;33.90;1.00
10276;DHT22;5183;51.190;6.820;2022-08-04T13:44:17;34.30;1.00
10276;DHT22;5183;51.190;6.820;2022-08-04T13:46:46;34.40;1.00
10276;DHT22;5183;51.190;6.820;2022-08-04T13:49:16;34.40;99.90
10276;DHT22;5183;51.190;6.820;2022-08-04T13:51:50;34.30;99.90
10276;DHT22;5183;51.190;6.820;2022-08-04T13:54:17;34.00;99.90
10276;DHT22;5183;51.190;6.820;2022-08-04T13:56:47;34.00;99.90
10276;DHT22;5183;51.190;6.820;2022-08-04T13:59:16;34.00;99.90
10276;DHT22;5183;51.190;6.820;2022-08-04T14:01:54;34.00;99.90
10276;DHT22;5183;51.190;6.820;2022-08-04T14:04:24;33.90;99.90
10276;DHT22;5183;51.190;6.820;2022-08-04T14:07:00;33.60;99.90
10276;DHT22;5183;51.190;6.820;2022-08-04T14:09:31;33.40;99.90
10276;DHT22;5183;51.190;6.820;2022-08-04T14:12:04;33.30;99.90
10276;DHT22;5183;51.190;6.820;2022-08-04T14:14:33;33.10;99.90
10276;DHT22;5183;51.190;6.820;2022-08-04T14:17:03;32.90;1.00
10276;DHT22;5183;51.190;6.820;2022-08-04T14:19:52;32.60;1.00
10276;DHT22;5183;51.190;6.820;2022-08-04T14:22:35;32.40;1.00
10276;DHT22;5183;51.190;6.820;2022-08-04T14:25:05;32.30;1.00
10276;DHT22;5183;51.190;6.820;2022-08-04T14:27:41;32.10;1.00
10276;DHT22;5183;51.190;6.820;2022-08-04T14:30:20;31.90;1.00
10276;DHT22;5183;51.190;6.820;2022-08-04T14:32:54;31.70;1.00
10276;DHT22;5183;51.190;6.820;2022-08-04T14:35:22;31.60;1.00
10276;DHT22;5183;51.190;6.820;2022-08-04T14:37:54;31.50;1.00
10276;DHT22;5183;51.190;6.820;2022-08-04T14:40:24;31.50;7.00
10276;DHT22;5183;51.190;6.820;2022-08-04T14:42:51;31.40;13.90
10276;DHT22;5183;51.190;6.820;2022-08-04T14:45:27;31.30;99.90
10276;DHT22;5183;51.190;6.820;2022-08-04T14:47:55;31.30;99.90
10276;DHT22;5183;51.190;6.820;2022-08-04T14:50:33;31.20;99.90
10276;DHT22;5183;51.190;6.820;2022-08-04T14:53:07;31.00;99.90
10276;DHT22;5183;51.190;6.820;2022-08-04T14:55:35;31.00;99.90
10276;DHT22;5183;51.190;6.820;2022-08-04T14:58:02;31.00;99.90
10276;DHT22;5183;51.190;6.820;2022-08-04T15:00:31;30.80;99.90
10276;DHT22;5183;51.190;6.820;2022-08-04T15:03:01;30.80;1.00
10276;DHT22;5183;51.190;6.820;2022-08-04T15:05:29;30.80;1.00
10276;DHT22;5183;51.190;6.820;2022-08-04T15:07:58;30.80;1.00
10276;DHT22;5183;51.190;6.820;2022-08-04T15:10:27;30.70;1.00
10276;DHT22;5183;51.190;6.820;2022-08-04T15:12:54;30.60;1.00
10276;DHT22;5183;51.190;6.820;2022-08-04T15:15:22;30.60;1.00
10276;DHT22;5183;51.190;6.820;2022-08-04T15:17:49;30.70;1.00
10276;DHT22;5183;51.190;6.820;2022-08-04T15:20:17;30.70;1.00
10276;DHT22;5183;51.190;6.820;2022-08-04T15:22:44;30.60;1.00
10276;DHT22;5183;51.190;6.820;2022-08-04T15:25:11;30.60;1.00
10276;DHT22;5183;51.190;6.820;2022-08-04T15:27:40;30.50;1.00
10276;DHT22;5183;51.190;6.820;2022-08-04T15:30:10;30.50;1.00
10276;DHT22;5183;51.190;6.820;2022-08-04T15:32:40;30.40;1.00
10276;DHT22;5183;51.190;6.820;2022-08-04T15:35:10;30.30;1.00
10276;DHT22;5183;51.190;6.820;2022-08-04T15:37:48;30.20;1.00
10276;DHT22;5183;51.190;6.820;2022-08-04T15:40:19;30.10;1.00
10276;DHT22;5183;51.190;6.820;2022-08-04T15:43:05;30.10;1.00
10276;DHT22;5183;51.190;6.820;2022-08-04T15:45:47;30.00;1.00
10276;DHT22;5183;51.190;6.820;2022-08-04T15:48:32;30.00;2.00
10276;DHT22;5183;51.190;6.820;2022-08-04T15:51:23;29.90;25.30
10276;DHT22;5183;51.190;6.820;2022-08-04T15:54:21;29.80;99.90
10276;DHT22;5183;51.190;6.820;2022-08-04T15:56:49;29.60;99.90
10276;DHT22;5183;51.190;6.820;2022-08-04T16:02:37;29.50;99.90
10276;DHT22;5183;51.190;6.820;2022-08-04T16:05:35;29.50;99.90
10276;DHT22;5183;51.190;6.820;2022-08-04T16:08:12;29.50;99.90
10276;DHT22;5183;51.190;6.820;2022-08-04T16:10:40;29.60;1.00
10276;DHT22;5183;51.190;6.820;2022-08-04T16:13:09;29.70;99.90
10276;DHT22;5183;51.190;6.820;2022-08-04T16:15:47;29.80;99.90
10276;DHT22;5183;51.190;6.820;2022-08-04T16:18:35;30.20;99.90
10276;DHT22;5183;51.190;6.820;2022-08-04T16:21:04;30.90;6.10
10276;DHT22;5183;51.190;6.820;2022-08-04T16:24:07;31.70;1.00
10276;DHT22;5183;51.190;6.820;2022-08-04T16:26:45;32.40;99.90
10276;DHT22;5183;51.190;6.820;2022-08-04T16:29:33;32.80;99.90
10276;DHT22;5183;51.190;6.820;2022-08-04T16:32:11;33.40;99.90
10276;DHT22;5183;51.190;6.820;2022-08-04T16:34:41;33.80;36.90
10276;DHT22;5183;51.190;6.820;2022-08-04T16:37:10;33.90;1.00
10276;DHT22;5183;51.190;6.820;2022-08-04T16:39:39;34.00;1.00
10276;DHT22;5183;51.190;6.820;2022-08-04T16:42:29;33.60;1.00
10276;DHT22;5183;51.190;6.820;2022-08-04T16:45:00;33.00;72.60
10276;DHT22;5183;51.190;6.820;2022-08-04T16:47:59;32.70;99.90
10276;DHT22;5183;51.190;6.820;2022-08-04T16:50:28;32.70;99.90
10276;DHT22;5183;51.190;6.820;2022-08-04T16:52:55;32.50;99.90
10276;DHT22;5183;51.190;6.820;2022-08-04T16:55:23;32.60;99.90
10276;DHT22;5183;51.190;6.820;2022-08-04T16:57:53;32.80;99.90
10276;DHT22;5183;51.190;6.820;2022-08-04T17:00:28;33.20;99.90
10276;DHT22;5183;51.190;6.820;2022-08-04T17:02:57;33.60;99.90
10276;DHT22;5183;51.190;6.820;2022-08-04T17:05:28;34.00;82.70
10276;DHT22;5183;51.190;6.820;2022-08-04T17:07:56;34.10;58.60
10276;DHT22;5183;51.190;6.820;2022-08-04T17:10:35;34.20;46.50
10276;DHT22;5183;51.190;6.820;2022-08-04T17:13:20;34.50;1.00
10276;DHT22;5183;51.190;6.820;2022-08-04T17:15:48;34.40;1.00
10276;DHT22;5183;51.190;6.820;2022-08-04T17:18:18;34.40;7.30
10276;DHT22;5183;51.190;6.820;2022-08-04T17:20:46;34.30;1.00
10276;DHT22;5183;51.190;6.820;2022-08-04T17:23:34;34.60;1.00